Saint Louis Park, Minnesota
Current Conditions -  °F | °C
As of 10:53 PM on Sunday 19 Oct 2014 (Local Time) from KMSP Reporting Station
Clear Clear  
Wind Chill: 57°   Ceiling: Unl
Heat Index: 57°   Visibility: 10mi
Dew Point: 42°   Wind: 12mph
Humidity: 57%   Direction: 320°NW
Pressure: 29.84"   Gusts: NA
Location:  44.9053°N, 93.3395°W
Report Text: KMSP 200353Z 32010KT 10SM CLR 14/06 A2984 RMK AO2 SLP106 T01390056
Loading
Personal Weather Stations






























Interactive Weather Map
Tropical Storm Tracking
New forecast layout! Learn more

10-Day Weather Forecast

Advertisements
Track Severe Weather on mobile